createdAt,value
2023-04-12T05:03:19.188Z,37.54
2023-04-12T05:04:20.131Z,36.47
2023-04-12T05:05:20.133Z,36.16
2023-04-12T05:06:19.186Z,35.83
2023-04-12T05:07:20.177Z,35.52
2023-04-12T05:08:20.233Z,35.12
2023-04-12T05:09:20.264Z,34.90
2023-04-12T05:10:20.305Z,34.67
2023-04-12T05:11:20.338Z,34.51
2023-04-12T05:12:19.334Z,34.43
2023-04-12T05:13:20.344Z,34.29
2023-04-12T05:14:20.463Z,34.20
2023-04-12T05:15:19.332Z,34.03
2023-04-12T05:16:20.369Z,33.89
2023-04-12T05:17:19.343Z,32.76
2023-04-12T05:18:20.390Z,32.10
2023-04-12T05:19:20.438Z,32.30
2023-04-12T05:20:20.450Z,32.12
2023-04-12T05:21:21.040Z,32.09
2023-04-12T05:22:19.674Z,32.04
2023-04-12T05:23:20.719Z,32.15
2023-04-12T05:24:19.741Z,32.15
2023-04-12T05:25:20.761Z,32.25
2023-04-12T05:26:19.785Z,32.47
2023-04-12T05:27:19.831Z,32.82
2023-04-12T05:28:20.858Z,32.97
2023-04-12T05:29:19.852Z,33.22
2023-04-12T05:30:19.876Z,33.22
2023-04-12T05:31:19.954Z,33.61
2023-04-12T05:32:20.997Z,34.03
2023-04-12T05:33:20.012Z,34.19
2023-04-12T05:34:21.021Z,34.47
2023-04-12T05:35:21.080Z,34.46
2023-04-12T05:36:20.060Z,34.42
2023-04-12T05:37:20.079Z,34.15
2023-04-12T05:38:20.045Z,33.92
2023-04-12T05:39:21.045Z,33.77
2023-04-12T05:40:21.040Z,34.19
2023-04-12T05:41:21.071Z,34.49
2023-04-12T05:42:21.098Z,34.42
2023-04-12T05:43:21.761Z,34.26
2023-04-12T05:44:21.243Z,34.29
2023-04-12T05:45:20.273Z,34.48
2023-04-12T05:46:21.397Z,34.55
2023-04-12T05:47:21.398Z,34.43
2023-04-12T05:48:20.443Z,34.49
2023-04-12T05:49:21.618Z,34.71
2023-04-12T05:50:20.533Z,34.92
2023-04-12T05:51:30.699Z,34.88
2023-04-12T05:52:21.776Z,35.28
2023-04-12T05:53:21.630Z,35.18
2023-04-12T05:54:20.557Z,35.29
2023-04-12T05:55:21.556Z,35.27
2023-04-12T05:56:21.567Z,35.58
2023-04-12T05:57:21.546Z,35.74
2023-04-12T05:58:21.536Z,36.01
2023-04-12T05:59:20.575Z,36.17
2023-04-12T06:00:20.525Z,36.12
2023-04-12T06:01:20.509Z,36.16
2023-04-12T06:02:20.848Z,36.23
2023-04-12T06:03:20.681Z,36.25
2023-04-12T06:04:21.679Z,36.39
2023-04-12T06:05:21.481Z,36.56
2023-04-12T06:06:21.458Z,36.59
2023-04-12T06:07:21.505Z,36.71
2023-04-12T06:08:21.466Z,36.93
2023-04-12T06:09:21.452Z,37.13
2023-04-12T06:10:21.448Z,37.10
2023-04-12T06:11:21.453Z,37.07
2023-04-12T06:12:20.419Z,37.18
2023-04-12T06:13:21.415Z,37.21
2023-04-12T06:14:21.415Z,37.30
2023-04-12T06:15:20.448Z,37.32
2023-04-12T06:16:20.513Z,37.47
2023-04-12T06:17:21.420Z,37.58
2023-04-12T06:18:21.390Z,37.49
2023-04-12T06:19:21.377Z,37.71
2023-04-12T06:20:21.368Z,37.81
2023-04-12T06:21:21.348Z,37.88
2023-04-12T06:22:21.362Z,37.79
2023-04-12T06:23:21.369Z,37.96
2023-04-12T06:24:20.341Z,37.76
2023-04-12T06:25:20.329Z,37.64
2023-04-12T06:26:21.329Z,38.12
2023-04-12T06:27:21.325Z,38.03
2023-04-12T06:28:21.314Z,38.19
2023-04-12T06:29:21.360Z,38.26
2023-04-12T06:30:21.385Z,38.40
2023-04-12T06:31:20.475Z,38.51
2023-04-12T06:32:21.494Z,38.63
2023-04-12T06:33:21.705Z,38.60
2023-04-12T06:34:21.578Z,38.50
2023-04-12T06:35:21.606Z,38.76
2023-04-12T06:36:21.591Z,38.87
2023-04-12T06:37:20.622Z,38.87
2023-04-12T06:38:20.697Z,39.01
2023-04-12T06:39:20.737Z,38.87
2023-04-12T06:40:21.772Z,39.11
2023-04-12T06:41:21.834Z,39.48
2023-04-12T06:42:21.905Z,39.38
2023-04-12T06:43:20.958Z,39.47
2023-04-12T06:44:22.026Z,39.63
2023-04-12T06:45:22.183Z,39.80
2023-04-12T06:46:22.176Z,39.74
2023-04-12T06:47:22.361Z,39.61
2023-04-12T06:48:22.261Z,39.63
2023-04-12T06:49:22.608Z,39.82
2023-04-12T06:50:21.381Z,40.19
2023-04-12T06:51:21.424Z,40.02
2023-04-12T06:52:21.783Z,39.78
2023-04-12T06:53:22.539Z,39.95
2023-04-12T06:54:22.602Z,40.00
2023-04-12T06:55:22.696Z,39.91
2023-04-12T06:56:22.706Z,39.71
2023-04-12T06:57:22.798Z,39.35
2023-04-12T06:58:22.833Z,39.29
2023-04-12T06:59:22.895Z,39.14
2023-04-12T07:00:21.954Z,39.08
2023-04-12T07:01:23.061Z,39.17
2023-04-12T07:02:23.100Z,39.15
2023-04-12T07:03:23.089Z,38.94
2023-04-12T07:04:23.113Z,38.78
2023-04-12T07:05:22.014Z,38.73
2023-04-12T07:06:25.660Z,38.76
2023-04-12T07:07:23.027Z,38.62
2023-04-12T07:08:21.992Z,38.64
2023-04-12T07:09:22.991Z,38.51
2023-04-12T07:10:22.975Z,38.48
2023-04-12T07:11:23.472Z,38.47
2023-04-12T07:12:22.999Z,38.44
2023-04-12T07:13:22.942Z,38.44
2023-04-12T07:14:21.960Z,38.40
2023-04-12T07:15:22.945Z,38.38
2023-04-12T07:16:22.934Z,38.34
2023-04-12T07:17:22.111Z,38.38
2023-04-12T07:18:22.911Z,38.36
2023-04-12T07:19:22.913Z,38.30
2023-04-12T07:20:22.899Z,38.23
2023-04-12T07:21:22.041Z,38.21
2023-04-12T07:22:22.911Z,38.18
2023-04-12T07:23:21.884Z,38.18
2023-04-12T07:24:21.880Z,38.25
2023-04-12T07:25:22.907Z,38.20
2023-04-12T07:26:22.871Z,38.20
2023-04-12T07:27:22.877Z,38.17
2023-04-12T07:28:22.828Z,38.13
2023-04-12T07:29:21.843Z,38.08
2023-04-12T07:30:22.823Z,38.08
2023-04-12T07:31:22.817Z,38.13
2023-04-12T07:32:23.012Z,38.12
2023-04-12T07:33:22.989Z,38.10
2023-04-12T07:34:23.069Z,38.09
2023-04-12T07:35:22.786Z,38.08
2023-04-12T07:36:21.826Z,38.01
2023-04-12T07:37:22.773Z,37.98
2023-04-12T07:38:22.792Z,38.02
2023-04-12T07:39:22.814Z,38.00
2023-04-12T07:40:22.767Z,38.03
2023-04-12T07:41:22.747Z,37.99
2023-04-12T07:42:22.763Z,37.97
2023-04-12T07:43:22.810Z,37.88
2023-04-12T07:44:22.774Z,37.90
2023-04-12T07:45:22.781Z,37.99
2023-04-12T07:46:22.874Z,38.06
2023-04-12T07:47:22.867Z,38.25
2023-04-12T07:48:21.698Z,38.34
2023-04-12T07:49:22.695Z,38.44
2023-04-12T07:50:22.678Z,36.63
2023-04-12T07:51:22.677Z,37.62
2023-04-12T07:52:22.858Z,37.83
2023-04-12T07:53:22.656Z,38.11
2023-04-12T07:54:23.550Z,38.08
2023-04-12T07:55:21.638Z,38.12
2023-04-12T07:56:21.638Z,38.54
2023-04-12T07:57:22.630Z,38.66
2023-04-12T07:58:22.626Z,39.03
2023-04-12T07:59:22.634Z,39.08
2023-04-12T08:00:21.602Z,38.97
2023-04-12T08:01:22.623Z,39.13
2023-04-12T08:02:21.780Z,39.19
2023-04-12T08:03:23.774Z,39.26
2023-04-12T08:04:22.983Z,39.24
2023-04-12T08:05:22.911Z,39.31
2023-04-12T08:06:21.886Z,39.30
2023-04-12T08:07:23.014Z,39.32
2023-04-12T08:08:23.172Z,39.33
2023-04-12T08:09:23.067Z,39.58
2023-04-12T08:10:23.138Z,39.54
2023-04-12T08:11:23.186Z,39.80
2023-04-12T08:12:23.306Z,39.77
2023-04-12T08:13:22.295Z,40.01
2023-04-12T08:14:22.345Z,40.00
2023-04-12T08:15:22.520Z,40.00
2023-04-12T08:16:23.507Z,39.93
2023-04-12T08:17:22.501Z,40.01
2023-04-12T08:18:23.538Z,40.09
2023-04-12T08:19:23.563Z,39.95
2023-04-12T08:20:23.639Z,40.17
2023-04-12T08:21:23.653Z,40.27
2023-04-12T08:22:22.690Z,40.16
2023-04-12T08:23:23.714Z,40.30
2023-04-12T08:24:23.745Z,40.29
2023-04-12T08:25:23.810Z,40.27
2023-04-12T08:26:22.814Z,40.38
2023-04-12T08:27:23.848Z,40.32
2023-04-12T08:28:23.899Z,40.29
2023-04-12T08:29:23.932Z,40.38
2023-04-12T08:30:23.956Z,40.32
2023-04-12T08:31:23.371Z,40.40
2023-04-12T08:32:23.096Z,40.36
2023-04-12T08:33:23.048Z,40.49
2023-04-12T08:34:24.068Z,40.69
2023-04-12T08:35:23.158Z,40.60
2023-04-12T08:36:23.135Z,40.76
2023-04-12T08:37:24.172Z,40.81
2023-04-12T08:38:37.214Z,41.08
2023-04-12T08:39:24.197Z,41.25
2023-04-12T08:40:24.192Z,41.18
2023-04-12T08:41:23.185Z,41.14
2023-04-12T08:42:24.319Z,41.29
2023-04-12T08:43:24.150Z,41.02
2023-04-12T08:44:24.152Z,41.03
2023-04-12T08:45:23.139Z,39.22
2023-04-12T08:46:24.158Z,36.95
2023-04-12T08:47:23.596Z,36.12
2023-04-12T08:48:24.130Z,36.45
2023-04-12T08:49:24.137Z,37.03
2023-04-12T08:50:24.102Z,37.47
2023-04-12T08:51:24.127Z,35.23
2023-04-12T08:52:24.101Z,33.97
2023-04-12T08:53:23.091Z,33.91
2023-04-12T08:54:24.084Z,33.45
2023-04-12T08:55:24.114Z,33.50
2023-04-12T08:56:24.057Z,33.15
2023-04-12T08:57:24.328Z,33.46
2023-04-12T08:58:24.061Z,33.55
2023-04-12T08:59:24.061Z,33.58
2023-04-12T09:00:23.042Z,35.34
2023-04-12T09:01:23.048Z,35.80
2023-04-12T09:02:24.311Z,34.51
2023-04-12T09:03:23.326Z,33.41
2023-04-12T09:04:23.150Z,32.86
2023-04-12T09:05:24.098Z,32.54
2023-04-12T09:06:24.033Z,32.07
2023-04-12T09:07:22.973Z,32.06
2023-04-12T09:08:23.987Z,32.42
2023-04-12T09:09:22.966Z,32.76
2023-04-12T09:10:23.996Z,32.85
2023-04-12T09:11:23.952Z,32.79
2023-04-12T09:12:23.948Z,32.66
2023-04-12T09:13:23.951Z,32.91
2023-04-12T09:14:23.926Z,33.05
2023-04-12T09:15:23.926Z,32.93
2023-04-12T09:16:23.936Z,33.34
2023-04-12T09:17:23.957Z,33.94
2023-04-12T09:18:23.917Z,34.64
2023-04-12T09:19:23.918Z,34.51
2023-04-12T09:20:22.992Z,34.14
2023-04-12T09:21:23.969Z,33.99
2023-04-12T09:22:22.953Z,33.83
2023-04-12T09:23:24.021Z,34.03
2023-04-12T09:24:23.994Z,34.03
2023-04-12T09:25:23.974Z,34.10
2023-04-12T09:26:23.988Z,33.55
2023-04-12T09:27:23.032Z,33.33
2023-04-12T09:28:23.177Z,33.36
2023-04-12T09:29:24.236Z,32.41
2023-04-12T09:30:24.146Z,31.66
2023-04-12T09:31:24.196Z,31.41
2023-04-12T09:32:24.267Z,31.29
2023-04-12T09:33:23.190Z,31.18
2023-04-12T09:34:26.513Z,31.10
2023-04-12T09:35:24.273Z,30.95
2023-04-12T09:36:23.213Z,30.91
2023-04-12T09:37:24.177Z,30.97
2023-04-12T09:38:24.168Z,31.22
2023-04-12T09:39:24.167Z,31.79
2023-04-12T09:40:24.135Z,31.76
2023-04-12T09:41:26.717Z,31.74
2023-04-12T09:42:33.279Z,31.91
2023-04-12T09:43:24.140Z,32.01
2023-04-12T09:44:24.115Z,32.31
2023-04-12T09:45:24.232Z,32.99
2023-04-12T09:46:24.242Z,33.17
2023-04-12T09:47:23.151Z,33.60
2023-04-12T09:48:24.365Z,32.72
2023-04-12T09:49:24.080Z,32.80
2023-04-12T09:50:24.067Z,33.61
2023-04-12T09:51:24.104Z,33.58
2023-04-12T09:52:23.058Z,33.81
2023-04-12T09:53:24.358Z,34.37
2023-04-12T09:54:23.030Z,34.31
2023-04-12T09:55:23.070Z,33.59
2023-04-12T09:56:23.057Z,34.49
2023-04-12T09:57:24.043Z,34.65
2023-04-12T09:58:24.101Z,34.17
2023-04-12T09:59:24.080Z,33.61
2023-04-12T10:00:23.001Z,33.24
2023-04-12T10:01:24.133Z,35.02
2023-04-12T10:02:24.134Z,35.74
2023-04-12T10:03:24.228Z,35.81
2023-04-12T10:04:23.126Z,35.91
2023-04-12T10:05:24.220Z,35.99
2023-04-12T10:06:23.965Z,36.02
2023-04-12T10:07:23.957Z,36.29
2023-04-12T10:08:23.976Z,36.53
2023-04-12T10:09:23.906Z,36.95
2023-04-12T10:10:23.900Z,37.25
2023-04-12T10:11:22.905Z,37.58
2023-04-12T10:12:24.107Z,37.78
2023-04-12T10:13:22.937Z,37.96
2023-04-12T10:14:22.937Z,37.91
2023-04-12T10:15:23.879Z,38.09
2023-04-12T10:16:23.919Z,38.18
2023-04-12T10:17:23.892Z,38.27
2023-04-12T10:18:22.872Z,38.39
2023-04-12T10:19:23.915Z,38.78
2023-04-12T10:20:27.101Z,38.87
2023-04-12T10:21:23.900Z,38.92
2023-04-12T10:22:22.923Z,38.90
2023-04-12T10:23:23.946Z,39.19
2023-04-12T10:24:23.900Z,39.05
2023-04-12T10:25:22.906Z,39.32
2023-04-12T10:26:23.898Z,39.56
2023-04-12T10:27:22.895Z,39.63
2023-04-12T10:28:23.883Z,39.91
2023-04-12T10:29:22.871Z,39.92
2023-04-12T10:30:23.850Z,40.12
2023-04-12T10:31:23.987Z,40.22
2023-04-12T10:32:23.921Z,40.27
2023-04-12T10:33:22.917Z,40.42
2023-04-12T10:34:23.823Z,40.47
2023-04-12T10:35:23.793Z,40.71
2023-04-12T10:36:23.874Z,40.80
2023-04-12T10:37:23.797Z,40.82
2023-04-12T10:38:23.815Z,40.72
2023-04-12T10:39:23.810Z,40.67
2023-04-12T10:40:23.799Z,40.93
2023-04-12T10:41:22.819Z,40.77
2023-04-12T10:42:23.807Z,41.08
2023-04-12T10:43:23.854Z,41.03
2023-04-12T10:44:22.740Z,41.51
2023-04-12T10:45:22.777Z,41.54
2023-04-12T10:46:22.775Z,41.65
2023-04-12T10:47:23.817Z,41.48
2023-04-12T10:48:23.933Z,41.56
2023-04-12T10:49:22.737Z,41.46
2023-04-12T10:50:23.772Z,41.02
2023-04-12T10:51:23.754Z,41.05
2023-04-12T10:52:22.745Z,40.99
2023-04-12T10:53:22.802Z,41.03
2023-04-12T10:54:23.791Z,40.76
2023-04-12T10:55:23.860Z,40.76
2023-04-12T10:56:22.816Z,40.70
2023-04-12T10:57:22.821Z,40.70
2023-04-12T10:58:23.932Z,40.70
2023-04-12T10:59:27.083Z,40.35
2023-04-12T11:00:23.823Z,40.59
2023-04-12T11:01:23.946Z,40.57
2023-04-12T11:02:23.977Z,40.40
2023-04-12T11:03:23.901Z,40.58
2023-04-12T11:04:24.018Z,40.45
2023-04-12T11:05:22.871Z,40.55
2023-04-12T11:06:27.435Z,40.26
2023-04-12T11:07:23.735Z,40.44
2023-04-12T11:08:23.758Z,40.43
2023-04-12T11:09:23.730Z,40.45
2023-04-12T11:10:23.745Z,40.49
2023-04-12T11:11:23.884Z,40.56
2023-04-12T11:12:23.809Z,40.65
2023-04-12T11:13:23.877Z,40.69
2023-04-12T11:14:23.918Z,40.88
2023-04-12T11:15:23.995Z,40.74
2023-04-12T11:16:24.081Z,41.01
2023-04-12T11:17:23.977Z,41.02
2023-04-12T11:18:24.175Z,40.83
2023-04-12T11:19:24.208Z,40.83
2023-04-12T11:20:24.289Z,40.67
2023-04-12T11:21:24.343Z,40.70
2023-04-12T11:22:24.414Z,40.79
2023-04-12T11:23:23.448Z,40.88
2023-04-12T11:24:24.497Z,40.75
2023-04-12T11:25:24.572Z,40.76
2023-04-12T11:26:24.613Z,40.68
2023-04-12T11:27:24.772Z,40.74
2023-04-12T11:28:29.720Z,40.70
2023-04-12T11:29:24.824Z,40.49
2023-04-12T11:30:23.826Z,40.40
2023-04-12T11:31:23.733Z,40.53
2023-04-12T11:32:23.859Z,40.31
2023-04-12T11:33:24.694Z,40.34
2023-04-12T11:34:24.705Z,40.14
2023-04-12T11:35:24.672Z,40.09
2023-04-12T11:36:24.660Z,40.19
2023-04-12T11:37:23.686Z,40.42
2023-04-12T11:38:23.664Z,40.41
2023-04-12T11:39:23.636Z,40.16
2023-04-12T11:40:24.654Z,39.81
2023-04-12T11:41:24.633Z,39.63
2023-04-12T11:42:24.617Z,39.46
2023-04-12T11:43:23.633Z,39.40
2023-04-12T11:44:24.615Z,39.24
2023-04-12T11:45:24.595Z,39.13
2023-04-12T11:46:24.646Z,38.99
2023-04-12T11:47:24.635Z,38.83
2023-04-12T11:48:23.596Z,38.80
2023-04-12T11:49:24.561Z,38.68
2023-04-12T11:50:23.562Z,38.64
2023-04-12T11:51:23.546Z,38.61
2023-04-12T11:52:24.573Z,38.58
2023-04-12T11:53:24.607Z,38.47
2023-04-12T11:54:24.623Z,38.45
2023-04-12T11:55:24.656Z,38.51
2023-04-12T11:56:23.668Z,38.47
2023-04-12T11:57:23.656Z,38.43
2023-04-12T11:58:23.700Z,38.40
2023-04-12T11:59:24.697Z,38.39
2023-04-12T12:00:23.696Z,38.30
2023-04-12T12:01:25.406Z,38.38
2023-04-12T12:02:25.839Z,38.49
2023-04-12T12:03:23.851Z,38.71
2023-04-12T12:04:24.878Z,38.45
2023-04-12T12:05:24.940Z,38.43
2023-04-12T12:06:23.959Z,38.41
2023-04-12T12:07:25.086Z,38.44
2023-04-12T12:08:23.925Z,38.31
2023-04-12T12:09:24.878Z,38.30
2023-04-12T12:10:40.023Z,38.25
2023-04-12T12:11:24.888Z,38.26
2023-04-12T12:12:24.858Z,38.62
2023-04-12T12:13:23.899Z,38.70
2023-04-12T12:14:24.858Z,38.60
2023-04-12T12:15:24.983Z,38.64
2023-04-12T12:16:25.050Z,38.63
2023-04-12T12:17:24.871Z,38.53
2023-04-12T12:18:23.851Z,38.48
2023-04-12T12:19:24.822Z,38.50
2023-04-12T12:20:23.861Z,38.50
2023-04-12T12:21:24.830Z,38.33
2023-04-12T12:22:24.824Z,38.08
2023-04-12T12:23:24.801Z,37.96
2023-04-12T12:24:24.786Z,37.88
2023-04-12T12:25:24.757Z,37.88
2023-04-12T12:26:24.780Z,37.91
2023-04-12T12:27:23.786Z,37.75
2023-04-12T12:28:23.772Z,37.69
2023-04-12T12:29:24.735Z,37.61
2023-04-12T12:30:24.731Z,37.74
2023-04-12T12:31:24.790Z,37.61
2023-04-12T12:32:23.859Z,37.60
2023-04-12T12:33:35.075Z,37.54
2023-04-12T12:34:24.737Z,37.49
2023-04-12T12:35:24.699Z,37.49
2023-04-12T12:36:23.685Z,37.55
2023-04-12T12:37:23.672Z,37.52
2023-04-12T12:38:31.421Z,37.56
2023-04-12T12:39:24.683Z,37.66
2023-04-12T12:40:23.667Z,37.54
2023-04-12T12:41:24.656Z,37.54
2023-04-12T12:42:23.651Z,37.78
2023-04-12T12:43:24.627Z,37.66
2023-04-12T12:44:23.631Z,37.49
2023-04-12T12:45:24.647Z,37.66
2023-04-12T12:46:23.653Z,37.86
2023-04-12T12:47:24.661Z,37.98
2023-04-12T12:48:23.634Z,37.97
2023-04-12T12:49:23.615Z,37.83
2023-04-12T12:50:24.897Z,37.92
2023-04-12T12:51:24.574Z,37.66
2023-04-12T12:52:23.572Z,37.58
2023-04-12T12:53:24.766Z,37.76
2023-04-12T12:54:39.413Z,37.79
2023-04-12T12:55:24.563Z,37.74
2023-04-12T12:56:24.552Z,37.64
2023-04-12T12:57:24.537Z,37.52
2023-04-12T12:58:24.540Z,37.38
2023-04-12T12:59:25.976Z,37.30
2023-04-12T13:00:24.666Z,37.49
2023-04-12T13:01:24.694Z,37.41
2023-04-12T13:02:23.759Z,37.35
2023-04-12T13:03:24.846Z,37.42
2023-04-12T13:04:23.773Z,37.42
2023-04-12T13:05:23.791Z,37.58
2023-04-12T13:06:23.680Z,37.43
2023-04-12T13:07:24.702Z,37.45
2023-04-12T13:08:23.700Z,37.23
2023-04-12T13:09:24.735Z,37.15
2023-04-12T13:10:23.756Z,37.10
2023-04-12T13:11:23.701Z,37.16
2023-04-12T13:12:23.704Z,37.18
2023-04-12T13:13:24.713Z,37.20
2023-04-12T13:14:24.703Z,37.16
2023-04-12T13:15:24.790Z,37.27
2023-04-12T13:16:26.264Z,37.46
2023-04-12T13:17:24.693Z,37.36
2023-04-12T13:18:24.676Z,37.32
2023-04-12T13:19:24.747Z,37.29
2023-04-12T13:20:23.663Z,37.63
2023-04-12T13:21:24.679Z,37.59
2023-04-12T13:22:24.651Z,37.44
2023-04-12T13:23:24.655Z,37.77
2023-04-12T13:24:24.655Z,37.81
2023-04-12T13:25:24.659Z,37.98
2023-04-12T13:26:23.639Z,37.76
2023-04-12T13:27:24.626Z,37.67
2023-04-12T13:28:24.635Z,37.74
2023-04-12T13:29:23.631Z,37.70
2023-04-12T13:30:23.593Z,37.63
2023-04-12T13:31:24.593Z,37.71
2023-04-12T13:32:24.606Z,37.96
2023-04-12T13:33:24.730Z,37.79
2023-04-12T13:34:24.576Z,37.55
2023-04-12T13:35:24.603Z,37.57
2023-04-12T13:36:23.575Z,37.72
2023-04-12T13:37:24.538Z,37.63
2023-04-12T13:38:24.542Z,37.70
2023-04-12T13:39:24.531Z,37.48
2023-04-12T13:40:23.524Z,37.38
2023-04-12T13:41:23.533Z,37.28
2023-04-12T13:42:24.506Z,37.10
2023-04-12T13:43:23.497Z,37.21
2023-04-12T13:44:23.503Z,37.22
2023-04-12T13:45:24.501Z,37.07
2023-04-12T13:46:23.545Z,37.00
2023-04-12T13:47:24.513Z,37.11
2023-04-12T13:48:24.527Z,37.17
2023-04-12T13:49:23.476Z,37.31
2023-04-12T13:50:23.448Z,37.60
2023-04-12T13:51:24.539Z,37.53
2023-04-12T13:52:24.448Z,38.02
2023-04-12T13:53:24.442Z,37.52
2023-04-12T13:54:24.438Z,37.38
2023-04-12T13:55:24.419Z,37.01
2023-04-12T13:56:24.430Z,37.05
2023-04-12T13:57:24.396Z,36.72
2023-04-12T13:58:23.406Z,36.63
2023-04-12T13:59:24.580Z,36.49
2023-04-12T14:00:24.376Z,36.72
2023-04-12T14:01:23.455Z,36.56
2023-04-12T14:02:23.421Z,36.56
2023-04-12T14:03:24.382Z,36.77
2023-04-12T14:04:23.452Z,36.70
2023-04-12T14:05:24.350Z,36.64
2023-04-12T14:06:23.348Z,36.62
2023-04-12T14:07:24.395Z,36.49
2023-04-12T14:08:23.331Z,36.75
2023-04-12T14:09:24.343Z,36.64
2023-04-12T14:10:24.319Z,36.75
2023-04-12T14:11:24.302Z,36.62
2023-04-12T14:12:24.355Z,36.65
2023-04-12T14:13:23.409Z,36.77
2023-04-12T14:14:24.508Z,36.80
2023-04-12T14:15:24.538Z,36.82
2023-04-12T14:16:23.592Z,36.61
2023-04-12T14:17:23.801Z,36.72
2023-04-12T14:18:23.816Z,36.49
2023-04-12T14:19:23.773Z,36.45
2023-04-12T14:20:24.838Z,36.45
2023-04-12T14:21:24.891Z,36.75
2023-04-12T14:22:24.959Z,36.54
2023-04-12T14:23:25.062Z,36.55
2023-04-12T14:24:25.086Z,36.60
2023-04-12T14:25:25.141Z,36.48
2023-04-12T14:26:24.179Z,36.34
2023-04-12T14:27:25.255Z,36.47
2023-04-12T14:28:25.305Z,36.51
2023-04-12T14:29:25.402Z,36.45
2023-04-12T14:30:25.427Z,36.38
2023-04-12T14:31:25.604Z,36.50
2023-04-12T14:32:25.629Z,36.54
2023-04-12T14:33:24.622Z,36.58
2023-04-12T14:34:25.767Z,36.46
2023-04-12T14:35:25.741Z,36.47
2023-04-12T14:36:24.806Z,36.43
2023-04-12T14:37:24.838Z,36.37
2023-04-12T14:38:25.994Z,36.34
2023-04-12T14:39:24.993Z,36.28
2023-04-12T14:40:25.041Z,36.14
2023-04-12T14:41:26.088Z,36.10
2023-04-12T14:42:26.174Z,36.03
2023-04-12T14:43:26.206Z,35.99
2023-04-12T14:44:26.582Z,35.86
2023-04-12T14:45:25.339Z,35.99
2023-04-12T14:46:26.445Z,35.81
2023-04-12T14:47:25.490Z,35.78
2023-04-12T14:48:25.523Z,35.87
2023-04-12T14:49:25.592Z,35.91
2023-04-12T14:50:25.642Z,35.94
2023-04-12T14:51:25.669Z,36.08
2023-04-12T14:52:26.718Z,36.21
2023-04-12T14:53:26.776Z,36.21
2023-04-12T14:54:26.811Z,36.09
2023-04-12T14:55:26.912Z,36.26
2023-04-12T14:56:28.001Z,36.05
2023-04-12T14:57:26.904Z,36.13
2023-04-12T14:58:25.912Z,36.23
2023-04-12T14:59:26.936Z,36.29
2023-04-12T15:00:25.887Z,36.36
2023-04-12T15:01:26.889Z,36.16
2023-04-12T15:02:26.054Z,36.12
2023-04-12T15:03:26.986Z,36.17
2023-04-12T15:04:26.006Z,36.23
2023-04-12T15:05:26.959Z,36.14
2023-04-12T15:06:25.858Z,36.11
2023-04-12T15:07:25.872Z,36.16
2023-04-12T15:08:25.836Z,36.31
2023-04-12T15:09:26.837Z,36.31
2023-04-12T15:10:26.817Z,36.36
2023-04-12T15:11:27.587Z,36.41
2023-04-12T15:12:26.803Z,36.33
2023-04-12T15:13:32.398Z,36.08
2023-04-12T15:14:26.814Z,36.14
2023-04-12T15:15:25.777Z,36.11
2023-04-12T15:16:26.789Z,36.15
2023-04-12T15:17:26.778Z,36.03
2023-04-12T15:18:26.750Z,35.92
2023-04-12T15:19:25.754Z,35.98
2023-04-12T15:20:26.766Z,35.95
2023-04-12T15:21:25.748Z,35.84
2023-04-12T15:22:26.729Z,35.89
2023-04-12T15:23:26.755Z,36.05
2023-04-12T15:24:26.706Z,35.92
2023-04-12T15:25:25.707Z,35.75
2023-04-12T15:26:26.696Z,35.64
2023-04-12T15:27:26.768Z,35.58
2023-04-12T15:28:26.701Z,35.58
2023-04-12T15:29:25.796Z,35.52
